Time;durP1;ratioP1;P1;durP2;ratioP2;P2;SDS_P1;SDS_P2;PMS_P1;PMS_P2;Temp;Humidity;BMP_temperature;BMP_pressure;BME280_temperature;BME280_humidity;BME280_pressure;Samples;Min_cycle;Max_cycle;Signal;HPM_P1;HPM_P2
2022/07/12 00:00:21;;;;;;;1.60;1.48;;;;;;;20.59;48.52;93923.50;5923648;24;20077;-96
2022/07/12 00:02:56;;;;;;;1.50;1.40;;;;;;;20.60;48.62;93914.00;5873966;24;20350;-93
2022/07/12 00:05:26;;;;;;;1.45;1.33;;;;;;;20.59;48.45;93915.25;5848573;24;20026;-94
2022/07/12 00:07:53;;;;;;;1.88;1.65;;;;;;;20.60;48.47;93922.25;5830888;24;20042;-94
2022/07/12 00:13:12;;;;;;;2.08;1.50;;;;;;;20.62;48.57;93919.72;6222123;22;20032;-94
2022/07/12 00:15:39;;;;;;;1.90;1.58;;;;;;;20.61;48.54;93906.50;6132803;23;20020;-93
2022/07/12 00:18:06;;;;;;;2.95;1.50;;;;;;;20.59;48.40;93909.03;6231269;22;20025;-94
2022/07/12 00:20:40;;;;;;;1.58;1.33;;;;;;;20.60;48.54;93919.50;6150511;23;20017;-93
2022/07/12 00:23:22;;;;;;;1.67;1.27;;;;;;;20.60;48.13;93908.50;6092584;23;20040;-93
2022/07/12 00:26:04;;;;;;;1.63;1.40;;;;;;;20.59;48.55;93906.28;6086736;23;20013;-93
2022/07/12 00:28:57;;;;;;;1.98;1.27;;;;;;;20.59;48.63;93911.78;6071957;23;20857;-94
2022/07/12 00:31:24;;;;;;;1.40;1.30;;;;;;;20.58;48.52;93902.03;6068773;23;20376;-94
2022/07/12 00:33:58;;;;;;;1.67;1.33;;;;;;;20.59;48.57;93906.28;6097108;23;20019;-94
2022/07/12 00:36:25;;;;;;;1.50;1.10;;;;;;;20.57;48.42;93904.03;6080778;23;20410;-92
2022/07/12 00:39:11;;;;;;;1.52;1.30;;;;;;;20.59;48.61;93895.28;6105775;23;20018;-92
2022/07/12 00:41:42;;;;;;;2.28;1.50;;;;;;;20.59;48.60;93906.28;6128280;22;20020;-93
2022/07/12 00:44:10;;;;;;;1.20;1.08;;;;;;;20.57;48.62;93901.28;6185329;23;20397;-91
2022/07/12 00:46:41;;;;;;;2.60;1.40;;;;;;;20.58;48.59;93896.53;6126673;23;20017;-93
2022/07/12 00:49:06;;;;;;;1.83;1.10;;;;;;;20.58;48.57;93888.31;6109283;23;20025;-92
2022/07/12 00:51:35;;;;;;;1.55;1.20;;;;;;;20.58;48.61;93900.03;6096342;23;20017;-93
2022/07/12 00:54:07;;;;;;;2.25;1.45;;;;;;;20.59;48.60;93895.28;6039664;23;20057;-93
2022/07/12 00:56:37;;;;;;;1.25;1.00;;;;;;;20.57;48.52;93900.56;6050710;23;20458;-93
2022/07/12 00:59:05;;;;;;;1.52;1.20;;;;;;;20.57;48.72;93884.81;6073172;23;20018;-94
2022/07/12 01:01:46;;;;;;;1.50;1.10;;;;;;;20.57;48.67;93887.56;6048793;23;20078;-93
2022/07/12 01:04:23;;;;;;;1.65;1.02;;;;;;;20.56;48.72;93885.34;6067771;23;20023;-92
2022/07/12 01:06:51;;;;;;;1.25;1.15;;;;;;;20.58;48.67;93888.31;6070595;23;20576;-93
2022/07/12 01:09:22;;;;;;;2.03;1.20;;;;;;;20.57;48.46;93898.53;6033048;23;20065;-92
2022/07/12 01:11:57;;;;;;;;;;;;;;;20.60;48.54;93899.53;6026769;23;20019;-91
2022/07/12 01:14:27;;;;;;;1.40;1.02;;;;;;;20.56;48.74;93893.59;6041026;23;19925;-93
2022/07/12 01:16:55;;;;;;;2.35;1.15;;;;;;;20.55;48.69;93900.34;6049889;23;20407;-92
2022/07/12 01:19:28;;;;;;;1.48;1.20;;;;;;;20.57;48.38;93895.78;5983636;23;20020;-92
2022/07/12 01:21:59;;;;;;;0.93;0.85;;;;;;;20.56;48.56;93897.09;6001688;23;20039;-93
2022/07/12 01:24:30;;;;;;;1.10;1.00;;;;;;;20.56;48.67;93893.59;6038285;23;20022;-93
2022/07/12 01:26:59;;;;;;;1.35;1.10;;;;;;;20.56;48.72;93896.34;6062897;23;20193;-93
2022/07/12 01:29:26;;;;;;;1.13;1.00;;;;;;;20.56;48.58;93890.84;6056444;23;20027;-94
2022/07/12 01:31:54;;;;;;;1.40;0.93;;;;;;;20.56;48.72;93894.34;6069894;23;20015;-92
2022/07/12 01:34:29;;;;;;;1.50;1.15;;;;;;;20.55;48.52;93892.84;6082834;23;20101;-92
2022/07/12 01:36:59;;;;;;;1.15;0.85;;;;;;;20.58;48.52;93900.03;6059044;23;20031;-93
2022/07/12 01:39:28;;;;;;;1.35;1.20;;;;;;;20.56;48.68;93897.09;6059367;23;20026;-92
2022/07/12 01:41:57;;;;;;;0.80;0.80;;;;;;;20.56;48.62;93897.09;6125456;23;20028;-94
2022/07/12 01:44:33;;;;;;;2.00;1.20;;;;;;;20.56;48.58;93896.34;6082215;23;20027;-94
2022/07/12 01:47:03;;;;;;;2.35;1.00;;;;;;;20.56;48.58;93894.34;6126529;23;20097;-92
2022/07/12 01:49:30;;;;;;;1.10;0.90;;;;;;;20.55;48.55;93897.59;6074503;23;20026;-92
2022/07/12 01:52:00;;;;;;;1.27;1.00;;;;;;;20.57;48.58;93898.53;6074854;23;20049;-93
2022/07/12 01:54:35;;;;;;;1.85;1.10;;;;;;;20.55;48.70;93900.34;6054334;23;20031;-93
2022/07/12 01:57:12;;;;;;;1.02;0.82;;;;;;;20.55;48.68;93898.34;6014187;23;20029;-93
2022/07/12 01:59:56;;;;;;;1.67;1.05;;;;;;;20.54;48.81;93896.84;6035005;23;20078;-92
2022/07/12 02:02:31;;;;;;;1.17;1.05;;;;;;;20.55;48.55;93895.59;5953045;23;20023;-92
2022/07/12 02:05:02;;;;;;;0.80;0.73;;;;;;;20.53;48.61;93893.34;6082463;23;20031;-91
2022/07/12 02:07:31;;;;;;;3.08;1.15;;;;;;;20.54;48.75;93894.09;5974905;23;20019;-93
2022/07/12 02:10:19;;;;;;;1.58;1.00;;;;;;;20.55;48.64;93900.34;5988633;23;20028;-93
2022/07/12 02:12:59;;;;;;;1.80;1.10;;;;;;;20.53;48.51;93901.59;5976125;23;20029;-94
2022/07/12 02:16:05;;;;;;;1.13;1.02;;;;;;;20.53;48.62;93903.59;6031890;23;20080;-94
2022/07/12 02:19:01;;;;;;;1.33;0.80;;;;;;;20.52;48.50;93902.84;5951771;23;20030;-92
2022/07/12 02:21:32;;;;;;;1.23;1.00;;;;;;;20.52;48.54;93899.34;5982892;23;20511;-91
2022/07/12 02:24:09;;;;;;;;;;;;;;;20.55;48.72;93903.84;5948378;24;20178;-93
2022/07/12 02:26:52;;;;;;;1.27;0.95;;;;;;;20.52;48.69;93905.59;5941656;23;19918;-92
2022/07/12 02:29:20;;;;;;;1.08;0.95;;;;;;;20.51;48.78;93898.63;5978409;23;20078;-92
2022/07/12 02:31:46;;;;;;;0.80;0.80;;;;;;;20.50;48.67;93902.63;5977571;23;20019;-92
2022/07/12 02:34:17;;;;;;;1.60;0.90;;;;;;;20.51;48.68;93900.63;5965367;23;20024;-91
2022/07/12 02:36:58;;;;;;;1.23;0.85;;;;;;;20.52;48.67;93905.59;5952709;23;20071;-92
2022/07/12 02:39:39;;;;;;;1.65;0.98;;;;;;;20.50;48.77;93902.63;5931747;23;20034;-93
2022/07/12 02:42:15;;;;;;;1.20;0.90;;;;;;;20.52;48.82;93902.09;6033102;23;20058;-91
2022/07/12 02:44:50;;;;;;;1.10;1.00;;;;;;;20.50;48.50;93905.38;5937626;23;20028;-92
2022/07/12 02:47:18;;;;;;;0.70;0.70;;;;;;;20.50;48.85;93908.09;5933531;23;20020;-92
2022/07/12 02:49:48;;;;;;;1.30;1.08;;;;;;;20.50;48.61;93902.63;5960090;23;20042;-94
2022/07/12 02:52:17;;;;;;;0.57;0.57;;;;;;;20.50;48.88;93913.59;5953699;23;20048;-93
2022/07/12 02:54:46;;;;;;;1.30;1.00;;;;;;;20.50;48.72;93910.84;5993329;23;20019;-93
2022/07/12 02:57:24;;;;;;;1.00;0.90;;;;;;;20.51;48.77;93901.38;5914710;23;20109;-92
2022/07/12 03:00:12;;;;;;;0.98;0.60;;;;;;;20.51;48.56;93911.59;6056760;23;20679;-93
2022/07/12 03:02:37;;;;;;;0.90;0.70;;;;;;;20.50;48.79;93907.38;5998711;23;20507;-93
2022/07/12 03:05:18;;;;;;;1.10;0.80;;;;;;;20.50;48.67;93916.34;5981352;23;20023;-92
2022/07/12 03:07:51;;;;;;;1.45;0.80;;;;;;;20.51;48.77;93915.09;5948969;23;20020;-92
2022/07/12 03:10:35;;;;;;;1.15;0.80;;;;;;;20.50;48.83;93918.34;6075992;23;20081;-90
2022/07/12 03:13:31;;;;;;;1.25;1.00;;;;;;;20.50;48.83;93916.34;6184214;23;20020;-92
2022/07/12 03:16:18;;;;;;;0.80;0.73;;;;;;;20.49;48.77;93917.59;6152347;22;20033;-91
2022/07/12 03:19:06;;;;;;;1.20;0.95;;;;;;;20.49;48.82;93923.09;6168271;23;20063;-92
2022/07/12 03:22:02;;;;;;;1.02;0.80;;;;;;;20.50;48.91;93912.84;6179477;23;20445;-92
2022/07/12 03:24:50;;;;;;;0.73;0.73;;;;;;;20.49;48.75;93917.59;6092010;23;20029;-90
2022/07/12 03:30:16;;;;;;;0.73;0.73;;;;;;;20.50;48.87;93929.34;6241552;22;20045;-90
2022/07/12 03:32:56;;;;;;;1.23;1.00;;;;;;;20.49;48.72;93931.34;6202356;23;20379;-91
2022/07/12 03:35:22;;;;;;;1.83;0.77;;;;;;;20.49;48.92;93936.09;6135650;22;20019;-92
2022/07/12 03:37:50;;;;;;;3.38;0.80;;;;;;;20.49;48.86;93944.31;6174826;22;20465;-91
2022/07/12 03:40:19;;;;;;;5.47;1.00;;;;;;;20.56;48.98;93938.28;6235289;22;20019;-92
2022/07/12 03:42:45;;;;;;;2.97;0.90;;;;;;;20.51;48.78;93944.56;6184869;23;20016;-92
2022/07/12 03:45:11;;;;;;;9.32;1.40;;;;;;;20.55;48.95;93942.28;6179597;22;20532;-90
2022/07/12 03:47:39;;;;;;;5.93;0.90;;;;;;;20.51;48.88;93945.31;6185218;23;20156;-91
2022/07/12 03:50:08;;;;;;;7.78;6.93;;;;;;;20.55;48.81;93945.03;6189752;22;20028;-91
2022/07/12 03:52:33;;;;;;;0.93;0.80;;;;;;;20.55;48.59;93942.28;6213551;23;20042;-91
2022/07/12 03:54:59;;;;;;;0.80;0.80;;;;;;;20.55;48.73;93944.28;6199646;23;20084;-91
2022/07/12 03:57:26;;;;;;;4.85;1.08;;;;;;;20.55;48.78;93949.78;6168600;22;20012;-87
2022/07/12 03:59:51;;;;;;;0.60;0.60;;;;;;;20.59;48.79;93947.47;6181143;23;20008;-88
2022/07/12 04:02:17;;;;;;;1.85;1.40;;;;;;;20.58;48.71;93948.72;6151265;23;20028;-91
2022/07/12 04:04:42;;;;;;;6.63;1.80;;;;;;;20.51;48.13;93945.31;6159274;23;20020;-92
2022/07/12 04:07:08;;;;;;;3.72;1.20;;;;;;;20.56;47.54;93940.28;6158189;23;20561;-92
2022/07/12 04:09:33;;;;;;;4.43;2.00;;;;;;;20.40;47.21;93953.63;6138286;23;20012;-93
2022/07/12 04:11:59;;;;;;;6.97;1.95;;;;;;;20.36;46.88;93953.13;6130324;23;20549;-91
2022/07/12 04:14:24;;;;;;;2.15;1.95;;;;;;;20.38;46.25;93947.88;6156145;23;20019;-91
2022/07/12 04:16:50;;;;;;;13.27;2.67;;;;;;;20.35;46.17;93953.66;6159227;23;20016;-92
2022/07/12 04:19:15;;;;;;;16.83;2.90;;;;;;;20.28;46.25;93954.94;6148446;23;20024;-90
2022/07/12 04:21:41;;;;;;;12.10;2.80;;;;;;;20.28;46.08;93957.69;6184007;23;20050;-91
2022/07/12 04:24:06;;;;;;;7.03;3.08;;;;;;;20.24;46.08;93961.94;6148326;23;20026;-91
2022/07/12 04:26:32;;;;;;;12.98;2.90;;;;;;;20.24;46.15;93954.47;6128689;23;20035;-90
2022/07/12 04:28:57;;;;;;;9.15;2.60;;;;;;;20.26;45.95;93951.94;6136025;23;20392;-90
2022/07/12 04:31:23;;;;;;;6.95;3.05;;;;;;;20.20;45.95;93956.72;6181250;23;20008;-92
2022/07/12 04:33:49;;;;;;;4.75;2.65;;;;;;;20.18;46.08;93946.25;6156788;23;20035;-91
2022/07/12 04:36:14;;;;;;;19.00;4.57;;;;;;;20.25;46.04;93952.47;6156188;23;20019;-89
2022/07/12 04:38:40;;;;;;;17.05;8.50;;;;;;;20.24;45.77;93950.97;6137589;23;20020;-90
2022/07/12 04:41:05;;;;;;;46.13;27.77;;;;;;;20.12;45.74;93961.28;6128723;23;20082;-91
2022/07/12 04:43:31;;;;;;;74.95;50.47;;;;;;;20.15;46.38;93958.25;6144413;23;20031;-89
2022/07/12 04:46:04;;;;;;;27.80;13.23;;;;;;;20.15;47.24;93960.25;6161917;23;20349;-90
2022/07/12 04:48:39;;;;;;;22.60;14.30;;;;;;;20.16;47.53;93967.97;6165444;23;20012;-95
2022/07/12 04:51:05;;;;;;;14.65;4.97;;;;;;;20.15;48.46;93968.47;6154712;23;20019;-92
2022/07/12 04:53:31;;;;;;;39.78;14.90;;;;;;;20.14;48.60;93965.00;6137996;22;20036;-93
2022/07/12 04:55:56;;;;;;;41.85;19.05;;;;;;;20.07;48.77;93973.03;6166831;23;20036;-92
2022/07/12 04:58:23;;;;;;;23.50;9.15;;;;;;;20.03;49.24;93967.81;6127066;23;20891;-94
2022/07/12 05:00:48;;;;;;;11.98;6.55;;;;;;;20.01;49.67;93966.84;6084215;23;20265;-94
2022/07/12 05:03:32;;;;;;;17.52;5.78;;;;;;;19.99;49.56;93964.59;6114823;23;20012;-94
2022/07/12 05:15:05;;;;;;;23.58;11.30;;;;;;;19.61;51.29;93977.25;6219961;23;20032;-94
2022/07/12 05:17:32;;;;;;;25.27;10.05;;;;;;;19.49;51.64;93976.50;6147981;23;20012;-93
2022/07/12 05:22:28;;;;;;;18.10;9.13;;;;;;;19.42;51.69;93984.53;6193844;23;20013;-92
2022/07/12 05:25:20;;;;;;;10.93;6.15;;;;;;;19.43;51.63;93980.53;6098065;23;20004;-93
2022/07/12 05:28:11;;;;;;;8.93;3.75;;;;;;;19.49;51.70;93976.50;6099134;23;20024;-94
2022/07/12 05:30:39;;;;;;;;;;;;;;;19.51;52.29;93976.03;6143405;23;20059;-93
2022/07/12 05:36:01;;;;;;;17.27;9.30;;;;;;;19.22;53.24;93982.09;6191590;22;20248;-94
2022/07/12 05:38:27;;;;;;;16.20;7.38;;;;;;;19.23;53.30;93986.34;6116327;23;20436;-90
2022/07/12 05:40:52;;;;;;;10.73;5.93;;;;;;;19.16;53.29;93993.06;6101382;23;20029;-88
2022/07/12 05:43:26;;;;;;;7.15;5.03;;;;;;;19.25;53.62;93989.31;6124077;23;20021;-93
2022/07/12 05:45:53;;;;;;;8.48;3.78;;;;;;;19.33;53.89;93990.28;6132773;23;20029;-91
2022/07/12 05:48:20;;;;;;;6.53;3.92;;;;;;;19.27;54.16;93993.03;6179862;22;20032;-94
2022/07/12 05:56:42;;;;;;;15.32;3.95;;;;;;;19.25;54.28;94001.03;6198980;22;20029;-93
2022/07/12 06:01:40;;;;;;;40.47;7.90;;;;;;;19.12;55.13;93998.81;6217495;22;20028;-92
2022/07/12 06:04:13;;;;;;;22.38;5.07;;;;;;;19.13;54.70;93994.81;6138815;23;20025;-94
2022/07/12 06:06:39;;;;;;;18.25;4.25;;;;;;;19.17;55.27;94000.03;6083959;23;20014;-92
2022/07/12 06:11:39;;;;;;;21.40;14.00;;;;;;;19.19;56.17;94000.28;6196735;23;20531;-91
2022/07/12 06:14:05;;;;;;;161.50;129.57;;;;;;;19.12;56.03;94000.78;6115546;23;20033;-90
2022/07/12 06:16:32;;;;;;;8.93;5.63;;;;;;;19.18;56.06;93998.78;6077204;23;20029;-88
2022/07/12 06:18:59;;;;;;;12.77;7.07;;;;;;;19.21;56.03;93997.78;6056132;23;20025;-91
2022/07/12 06:21:26;;;;;;;7.65;3.60;;;;;;;19.13;56.07;94005.03;6012888;23;20034;-88
2022/07/12 06:23:58;;;;;;;9.13;3.30;;;;;;;19.14;55.76;93998.31;6014540;23;20007;-89
2022/07/12 06:26:36;;;;;;;9.15;3.55;;;;;;;19.22;55.50;93996.56;6125881;23;20076;-87
2022/07/12 06:29:01;;;;;;;20.83;8.18;;;;;;;19.16;54.00;93996.56;6102482;23;20041;-91
2022/07/12 06:31:37;;;;;;;20.67;10.38;;;;;;;19.14;52.34;93992.81;6025649;23;20054;-90
2022/07/12 06:34:15;;;;;;;24.48;12.45;;;;;;;19.12;51.70;93998.06;6031078;23;20023;-90
2022/07/12 06:36:43;;;;;;;13.20;7.40;;;;;;;19.20;48.24;93999.03;6087051;23;20022;-88
2022/07/12 06:39:10;;;;;;;13.80;8.35;;;;;;;19.19;47.26;94000.28;6002376;23;20044;-90
2022/07/12 06:41:36;;;;;;;23.30;9.40;;;;;;;19.24;47.33;94009.75;5984927;24;20059;-89
2022/07/12 06:44:03;;;;;;;27.40;13.82;;;;;;;19.25;47.90;94012.00;5978270;23;20024;-90
2022/07/12 06:46:30;;;;;;;31.25;14.18;;;;;;;19.23;46.94;94009.00;5948019;23;20032;-91
2022/07/12 06:48:57;;;;;;;36.60;14.68;;;;;;;19.17;46.66;94006.28;5975613;23;20027;-91
2022/07/12 06:51:57;;;;;;;25.58;9.73;;;;;;;19.34;46.33;94010.97;6006004;23;20028;-90
2022/07/12 06:54:25;;;;;;;14.70;7.77;;;;;;;19.35;45.76;94004.97;5990863;23;20084;-91
2022/07/12 06:57:21;;;;;;;12.27;6.30;;;;;;;19.28;45.96;94012.97;5937839;24;20013;-91
2022/07/12 06:59:49;;;;;;;8.52;4.43;;;;;;;19.30;45.79;94013.97;5867032;24;20027;-91
2022/07/12 07:02:16;;;;;;;12.13;4.93;;;;;;;19.34;45.57;94010.97;5946787;23;20020;-91
2022/07/12 07:04:42;;;;;;;7.07;3.47;;;;;;;19.41;44.64;94013.94;5869673;24;20926;-90
2022/07/12 07:07:08;;;;;;;29.35;13.27;;;;;;;19.45;44.54;94019.16;5913680;24;20073;-91
2022/07/12 07:09:34;;;;;;;41.28;15.57;;;;;;;19.37;44.48;94013.44;5911385;24;20024;-89
2022/07/12 07:12:06;;;;;;;47.78;13.38;;;;;;;19.38;44.33;94016.94;5954336;22;20626;-91
2022/07/12 07:14:35;;;;;;;53.97;13.57;;;;;;;19.44;43.69;94007.47;6190230;23;20052;-90
2022/07/12 07:17:01;;;;;;;54.22;16.63;;;;;;;19.51;43.99;94017.16;6165857;23;20029;-91
2022/07/12 07:19:27;;;;;;;18.08;9.65;;;;;;;19.41;43.45;94018.69;6135779;23;20013;-90
2022/07/12 07:22:14;;;;;;;19.13;8.25;;;;;;;19.52;43.75;94024.91;6154372;23;20055;-88
2022/07/12 07:24:43;;;;;;;42.03;25.90;;;;;;;19.58;43.53;94024.88;6201252;23;20013;-94
2022/07/12 07:27:46;;;;;;;38.70;20.42;;;;;;;19.63;43.66;94029.63;6140954;23;20102;-91
2022/07/12 07:32:57;;;;;;;48.97;29.30;;;;;;;19.61;43.69;94023.88;6141514;23;20107;-93
2022/07/12 07:35:24;;;;;;;41.13;24.60;;;;;;;19.64;43.61;94017.38;6105712;23;20060;-91
2022/07/12 07:37:50;;;;;;;45.65;24.70;;;;;;;19.67;43.92;94021.88;6047445;23;20021;-90
2022/07/12 07:40:16;;;;;;;34.72;20.17;;;;;;;19.60;43.67;94025.13;6112231;23;20190;-91
2022/07/12 07:42:45;;;;;;;36.25;15.65;;;;;;;19.72;43.40;94020.34;6032530;23;20030;-91
2022/07/12 07:45:13;;;;;;;28.35;13.10;;;;;;;19.67;43.32;94024.63;6039747;23;20018;-93
2022/07/12 07:47:48;;;;;;;19.42;9.75;;;;;;;19.70;43.02;94026.31;6018078;23;20092;-91
2022/07/12 07:50:17;;;;;;;13.40;7.82;;;;;;;19.68;43.05;94030.84;6023492;23;20101;-93
2022/07/12 07:52:42;;;;;;;13.82;7.03;;;;;;;19.71;42.83;94025.06;6075393;23;20029;-92
2022/07/12 07:55:08;;;;;;;13.68;6.65;;;;;;;19.79;42.78;94026.06;6021216;23;20025;-93
2022/07/12 07:57:35;;;;;;;33.00;8.25;;;;;;;19.82;42.75;94029.78;6076645;23;20017;-91
2022/07/12 08:00:00;;;;;;;29.88;7.28;;;;;;;19.73;42.42;94028.06;6059929;23;20141;-90
2022/07/12 08:02:27;;;;;;;54.40;9.05;;;;;;;19.75;42.13;94033.78;6040242;23;20026;-92
2022/07/12 08:04:52;;;;;;;33.53;6.55;;;;;;;19.78;42.32;94029.31;6045032;23;20028;-94
2022/07/12 08:07:18;;;;;;;28.42;6.18;;;;;;;19.78;42.50;94023.81;6035508;23;20029;-91
2022/07/12 08:09:43;;;;;;;14.30;4.20;;;;;;;19.87;41.85;94034.50;6121210;23;20021;-92
2022/07/12 08:12:09;;;;;;;10.20;3.50;;;;;;;19.77;41.94;94023.06;6083752;23;20021;-92
2022/07/12 08:14:36;;;;;;;10.48;3.60;;;;;;;19.82;41.99;94027.03;6080156;23;20017;-92
2022/07/12 08:17:02;;;;;;;9.27;3.45;;;;;;;19.79;41.76;94030.78;6100100;23;20017;-93
2022/07/12 08:19:28;;;;;;;5.40;3.10;;;;;;;19.80;41.52;94032.28;6120604;23;20032;-94
2022/07/12 08:21:53;;;;;;;9.32;3.20;;;;;;;19.85;41.21;94029.53;6114989;23;20394;-91
2022/07/12 08:24:19;;;;;;;5.55;3.10;;;;;;;19.92;40.72;94025.50;6108693;23;20619;-93
2022/07/12 08:26:46;;;;;;;8.68;2.47;;;;;;;19.84;40.74;94016.31;6102649;23;20017;-93
2022/07/12 08:29:12;;;;;;;3.33;2.17;;;;;;;19.81;40.56;94022.81;6130503;23;20032;-92
2022/07/12 08:31:38;;;;;;;7.35;2.63;;;;;;;19.91;40.73;94018.53;6103270;23;20025;-93
2022/07/12 08:34:03;;;;;;;11.90;3.92;;;;;;;19.91;40.59;94015.03;6097444;23;20024;-92
2022/07/12 08:36:29;;;;;;;7.32;3.55;;;;;;;19.93;41.91;94018.00;6087401;23;20027;-93
2022/07/12 08:38:55;;;;;;;7.47;4.20;;;;;;;19.89;41.35;94023.03;6105461;23;20021;-93
2022/07/12 08:41:21;;;;;;;6.50;3.45;;;;;;;19.79;41.44;94023.31;6096825;23;20021;-93
2022/07/12 08:44:17;;;;;;;7.10;3.47;;;;;;;19.83;41.35;94026.53;6114766;23;20082;-92
2022/07/12 08:46:46;;;;;;;8.45;3.72;;;;;;;19.90;41.38;94017.03;6132661;23;20024;-91
2022/07/12 08:49:12;;;;;;;13.02;3.20;;;;;;;19.87;41.31;94023.53;6108415;23;20559;-91
2022/07/12 08:51:37;;;;;;;6.63;2.60;;;;;;;19.81;41.38;94022.81;6095316;23;20021;-90
2022/07/12 08:54:09;;;;;;;7.28;3.08;;;;;;;19.80;41.24;94027.53;6098128;23;20025;-91
2022/07/12 08:56:37;;;;;;;7.07;2.95;;;;;;;19.83;41.67;94023.06;6094450;23;20508;-93
2022/07/12 08:59:18;;;;;;;10.15;4.28;;;;;;;19.79;41.87;94028.78;6114362;23;20025;-90
2022/07/12 09:01:47;;;;;;;10.63;4.53;;;;;;;19.85;41.27;94034.28;6081993;23;20049;-90
2022/07/12 09:04:15;;;;;;;12.82;3.58;;;;;;;19.84;41.69;94032.78;6047486;23;20032;-92
2022/07/12 09:06:40;;;;;;;14.82;3.67;;;;;;;19.80;41.97;94035.03;6043693;23;20060;-91
2022/07/12 09:09:08;;;;;;;15.82;4.05;;;;;;;19.71;41.80;94033.31;6047918;23;20325;-92
2022/07/12 09:11:35;;;;;;;9.85;2.83;;;;;;;19.72;41.99;94042.28;6078450;23;20025;-91
2022/07/12 09:14:10;;;;;;;7.80;2.33;;;;;;;19.71;42.38;94036.06;6068445;23;20029;-91
2022/07/12 09:16:36;;;;;;;5.00;2.60;;;;;;;19.79;42.17;94044.50;6067769;23;20041;-92
2022/07/12 09:19:16;;;;;;;6.40;2.80;;;;;;;19.79;42.35;94044.50;6085503;23;20616;-91
2022/07/12 09:21:51;;;;;;;;;;;;;;;19.84;42.27;94041.00;6021117;23;20376;-91
2022/07/12 09:24:37;;;;;;;7.32;2.55;;;;;;;19.82;42.41;94038.78;6030745;23;19921;-93
2022/07/12 09:27:05;;;;;;;5.68;2.38;;;;;;;19.90;42.49;94039.00;6059375;23;20026;-93
2022/07/12 09:29:50;;;;;;;7.85;2.55;;;;;;;19.86;42.34;94030.28;5983861;23;20033;-94
2022/07/12 09:38:13;;;;;;;3.83;1.83;;;;;;;19.82;42.50;94036.03;5992672;23;20488;-92
2022/07/12 09:40:39;;;;;;;4.88;1.88;;;;;;;19.80;42.65;94038.53;5992119;23;20019;-90
2022/07/12 09:43:05;;;;;;;5.25;2.65;;;;;;;19.89;42.06;94037.50;5969225;23;20443;-92
2022/07/12 09:45:31;;;;;;;7.07;5.40;;;;;;;19.93;41.78;94023.50;6011780;23;20022;-92
2022/07/12 09:47:57;;;;;;;17.15;9.98;;;;;;;19.93;41.74;94040.69;6031459;23;20121;-90
2022/07/12 09:50:22;;;;;;;17.30;8.40;;;;;;;19.96;41.78;94028.72;6037540;23;20031;-89
2022/07/12 09:52:48;;;;;;;12.13;5.95;;;;;;;19.96;41.76;94042.44;6060655;23;20022;-90
2022/07/12 09:55:18;;;;;;;8.05;4.97;;;;;;;19.98;41.78;94031.72;6087737;23;20033;-90
2022/07/12 09:57:46;;;;;;;11.68;5.50;;;;;;;19.93;42.12;94040.69;6154229;23;20457;-91
2022/07/12 10:00:16;;;;;;;9.20;5.32;;;;;;;19.93;42.07;94035.22;6098955;23;20052;-91
2022/07/12 10:02:42;;;;;;;19.48;7.13;;;;;;;20.00;42.00;94031.94;6068228;23;20077;-93
2022/07/12 10:05:08;;;;;;;17.75;6.80;;;;;;;19.91;42.05;94032.25;6067642;23;20044;-92
2022/07/12 10:07:34;;;;;;;20.38;9.13;;;;;;;20.00;42.27;94034.69;6033462;23;20515;-92
2022/07/12 10:10:02;;;;;;;11.65;6.07;;;;;;;19.99;42.25;94037.94;6038440;23;20137;-94
2022/07/12 10:12:28;;;;;;;10.27;5.43;;;;;;;19.98;42.33;94034.44;6065848;23;20417;-92
2022/07/12 10:15:00;;;;;;;7.40;4.80;;;;;;;19.99;42.30;94032.44;6084746;23;20114;-93
2022/07/12 10:17:31;;;;;;;5.57;3.72;;;;;;;19.91;42.72;94028.75;6081473;23;20513;-91
2022/07/12 10:20:18;;;;;;;5.20;3.25;;;;;;;19.97;42.22;94030.22;6086401;23;20017;-93
2022/07/12 10:22:46;;;;;;;7.82;4.00;;;;;;;20.00;42.51;94022.97;6179303;23;20511;-92
2022/07/12 10:25:32;;;;;;;5.93;3.53;;;;;;;20.05;42.51;94027.69;6115686;23;20026;-93
2022/07/12 10:27:58;;;;;;;4.22;2.22;;;;;;;19.91;42.68;94032.25;6102709;23;20344;-93
2022/07/12 10:30:25;;;;;;;4.43;2.42;;;;;;;19.91;42.65;94031.50;6073968;23;20049;-93
2022/07/12 10:32:53;;;;;;;2.65;2.17;;;;;;;19.90;42.56;94033.50;6173911;23;20069;-90
2022/07/12 10:35:22;;;;;;;3.50;1.88;;;;;;;19.93;42.33;94031.72;6166878;23;20056;-92
2022/07/12 10:38:23;;;;;;;2.10;1.90;;;;;;;19.97;42.35;94029.47;6142229;23;20036;-93
2022/07/12 10:40:53;;;;;;;3.78;2.15;;;;;;;19.96;42.62;94031.47;6191046;23;20020;-93
2022/07/12 10:43:21;;;;;;;4.82;3.63;;;;;;;19.94;42.77;94033.22;6206543;23;20239;-94
2022/07/12 10:45:49;;;;;;;41.75;31.23;;;;;;;19.91;43.41;94034.25;6142141;23;20112;-90
2022/07/12 10:48:18;;;;;;;12.98;6.82;;;;;;;19.92;43.35;94038.50;6145685;23;20029;-92
2022/07/12 10:53:45;;;;;;;5.68;3.78;;;;;;;19.85;43.61;94043.25;6172260;23;20076;-92
2022/07/12 10:56:27;;;;;;;5.78;3.58;;;;;;;19.83;44.42;94029.28;6136224;22;20011;-91
2022/07/12 10:58:55;;;;;;;10.88;5.35;;;;;;;19.88;44.07;94038.00;6138162;23;20030;-93
2022/07/12 11:01:21;;;;;;;10.98;5.20;;;;;;;19.91;44.10;94037.00;6109198;23;20030;-94
2022/07/12 11:03:50;;;;;;;14.48;6.90;;;;;;;19.91;44.50;94037.75;6092924;23;20094;-95
2022/07/12 11:06:17;;;;;;;7.20;4.35;;;;;;;19.87;44.92;94037.25;6094673;23;20088;-94
2022/07/12 11:09:20;;;;;;;10.73;5.05;;;;;;;19.83;45.09;94043.00;6095096;23;20006;-93
2022/07/12 11:11:48;;;;;;;6.55;4.75;;;;;;;19.77;45.30;94038.78;6051594;23;20022;-93
2022/07/12 11:14:30;;;;;;;7.63;4.00;;;;;;;19.81;45.17;94031.03;6045700;23;20023;-93
2022/07/12 11:16:56;;;;;;;6.18;3.40;;;;;;;19.83;45.36;94045.75;6120804;23;20028;-90
2022/07/12 11:19:26;;;;;;;9.70;2.83;;;;;;;19.85;44.95;94043.25;6131560;23;20036;-90
2022/07/12 11:21:58;;;;;;;6.15;2.70;;;;;;;19.83;45.18;94045.00;6131007;23;20040;-86
2022/07/12 11:24:24;;;;;;;8.10;5.32;;;;;;;19.78;45.26;94034.78;6130122;23;20021;-91
2022/07/12 11:26:50;;;;;;;10.10;6.88;;;;;;;19.83;45.13;94039.50;6145609;23;20185;-87
2022/07/12 11:29:16;;;;;;;30.35;11.52;;;;;;;19.88;45.16;94043.50;6161552;23;20059;-88
2022/07/12 11:31:41;;;;;;;29.13;11.40;;;;;;;19.88;45.20;94044.25;6160102;23;20024;-89
2022/07/12 11:34:07;;;;;;;35.17;11.65;;;;;;;19.96;44.95;94031.47;6184965;23;20067;-88
2022/07/12 11:36:32;;;;;;;36.33;13.90;;;;;;;19.99;44.92;94040.69;6173352;23;20063;-92
2022/07/12 11:39:00;;;;;;;22.90;8.80;;;;;;;20.04;44.56;94037.94;6167582;23;20050;-89
2022/07/12 11:41:26;;;;;;;10.60;5.97;;;;;;;19.96;43.76;94031.47;6170256;23;20474;-89
2022/07/12 11:46:17;;;;;;;22.85;5.78;;;;;;;19.94;44.10;94028.47;6206284;22;20032;-90
2022/07/12 11:48:43;;;;;;;16.38;4.80;;;;;;;19.96;43.71;94036.94;6114790;23;20013;-88
2022/07/12 11:51:13;;;;;;;24.13;6.60;;;;;;;20.00;43.61;94031.94;6144546;23;20081;-88
2022/07/12 11:53:40;;;;;;;23.13;4.82;;;;;;;19.97;44.22;94026.72;6104356;23;20043;-88
2022/07/12 11:56:09;;;;;;;15.38;3.97;;;;;;;19.98;44.00;94028.22;6167844;23;20044;-88
2022/07/12 11:58:38;;;;;;;20.17;4.15;;;;;;;19.90;44.33;94036.25;6155386;23;20045;-89
2022/07/12 12:01:04;;;;;;;16.45;4.65;;;;;;;19.85;44.48;94032.28;6129259;23;20016;-89
2022/07/12 12:03:41;;;;;;;27.23;6.05;;;;;;;19.90;44.60;94027.28;6111971;23;20025;-91
2022/07/12 12:06:06;;;;;;;32.22;7.95;;;;;;;19.89;44.58;94017.56;6122502;23;20024;-90
2022/07/12 12:08:32;;;;;;;57.97;9.48;;;;;;;19.98;44.78;94020.72;6130709;23;20047;-90
2022/07/12 12:10:59;;;;;;;37.50;9.18;;;;;;;19.99;45.04;94021.47;6114116;23;20020;-90
2022/07/12 12:13:26;;;;;;;25.90;5.78;;;;;;;19.96;45.12;94017.75;6139967;23;20030;-92
2022/07/12 12:21:17;;;;;;;23.63;4.70;;;;;;;20.01;45.82;94016.97;6198685;23;20021;-93
2022/07/12 12:23:50;;;;;;;16.40;4.53;;;;;;;20.04;45.69;94020.72;6059547;23;20045;-91
2022/07/12 12:26:26;;;;;;;19.10;4.22;;;;;;;19.97;45.93;94024.72;6063967;23;20022;-91
2022/07/12 12:28:54;;;;;;;20.73;4.57;;;;;;;20.04;45.65;94024.19;6050245;23;20027;-91
2022/07/12 12:31:21;;;;;;;25.38;5.45;;;;;;;20.14;46.47;94021.88;6001054;23;20018;-88
2022/07/12 12:33:52;;;;;;;20.23;5.00;;;;;;;20.14;46.41;94025.38;6044858;23;20471;-94
2022/07/12 12:36:23;;;;;;;14.57;3.88;;;;;;;20.18;46.65;94025.88;6136458;23;20032;-87